Terminal Aerodrome Forecast
Issued by NWS

Home | Current Version | Previous Version | Text Only | Print | Product List | Glossary On
Versions: 1 2 3 4 5 6 7 8 9 10 11 12 13 14 15 16 17 18 19 20 21 22 23
000
FTUS42 KJAX 281700
TAFVQQ
TAF
KVQQ 281729Z 2818/2918 01010KT P6SM SKC
     FM282200 03005KT P6SM SKC
     FM290200 00000KT P6SM SKC
     FM291400 06005KT P6SM SKC=

USA.gov is the U.S. government's official web portal to all federal, state and local government web resources and services.